Portada
METAR-TAF:

METAR-TAF

Aeroports :

Morganton, Carolina del Nord, Estats Units d'Amèrica

latitud: 35-49-17N, longitud: 081-36-39W, altitud: 387 m

Observació

L'informe es va fer fa 19 minuts, a les 12:35 UTC
Vent calma
Temperatura 5°C
Humitat 93%
Pressió 1011 hPa
Visibilitat: 2.4 km
Cel cobert a una alçada de 500 ft
boirina

METAR: KMRN 191235Z AUTO 00000KT 1 1/2SM BR OVC005 05/04 A2986 RMK AO2 T00480043

Hora: 07:54 (12:54 UTC)


TAF: manca

Observacions i pronòstics meteorològics de més de 4000 aeroports (METAR i TAF).

Les estacions disponibles són els punts grocs i vermells al mapa.

Posi el ratolí al punt desitjat per veure el nom de l'estació.

Feu clic per veure les observacions i els pronòstics meteorològics.

Per canviar el mapa: feu clic els botons verds amb una creu de color negre per apropar; al botó verd amb un guió per allunyar la imatge; o en les fletxes verdes per a mapes adjacents.


METAR-TAF: